Time;durP1;ratioP1;P1;durP2;ratioP2;P2;SDS_P1;SDS_P2;PMS_P1;PMS_P2;Temp;Humidity;BMP_temperature;BMP_pressure;BME280_temperature;BME280_humidity;BME280_pressure;Samples;Min_cycle;Max_cycle;Signal;HPM_P1;HPM_P2
2022/01/27 00:01:02;;;;;;;80.87;39.43;;;;;;;;;;4983793;28;20485;-79
2022/01/27 00:03:32;;;;;;;79.43;41.00;;;;;;;;;;4992727;28;21004;-79
2022/01/27 00:06:03;;;;;;;75.30;40.37;;;;;;;;;;4984082;28;20442;-79
2022/01/27 00:08:35;;;;;;;82.00;39.70;;;;;;;;;;4990145;28;20475;-79
2022/01/27 00:11:08;;;;;;;85.63;43.50;;;;;;;;;;4986008;28;20630;-78
2022/01/27 00:13:44;;;;;;;83.87;41.60;;;;;;;;;;4982178;28;20506;-80
2022/01/27 00:16:16;;;;;;;79.83;41.10;;;;;;;;;;4986573;28;20505;-79
2022/01/27 00:18:43;;;;;;;81.07;39.67;;;;;;;;;;4984616;28;20486;-76
2022/01/27 00:21:10;;;;;;;80.57;39.40;;;;;;;;;;4983426;28;21090;-80
2022/01/27 00:23:36;;;;;;;84.27;42.37;;;;;;;;;;4982118;28;20536;-79
2022/01/27 00:26:03;;;;;;;79.20;39.03;;;;;;;;;;4987616;28;20475;-79
2022/01/27 00:28:29;;;;;;;74.90;39.27;;;;;;;;;;4986690;28;20482;-80
2022/01/27 00:30:57;;;;;;;80.17;40.20;;;;;;;;;;4985031;28;20482;-79
2022/01/27 00:33:23;;;;;;;77.70;38.33;;;;;;;;;;4984664;28;20898;-79
2022/01/27 00:35:49;;;;;;;77.43;37.90;;;;;;;;;;4983591;28;20460;-77
2022/01/27 00:38:15;;;;;;;82.30;39.23;;;;;;;;;;4984272;28;20540;-79
2022/01/27 00:40:42;;;;;;;83.20;39.60;;;;;;;;;;4987181;28;20525;-79
2022/01/27 00:43:08;;;;;;;81.23;37.90;;;;;;;;;;4987132;28;20486;-79
2022/01/27 00:45:35;;;;;;;72.17;38.40;;;;;;;;;;4984983;28;20459;-79
2022/01/27 00:48:04;;;;;;;75.87;37.27;;;;;;;;;;4983696;28;20878;-79
2022/01/27 00:50:32;;;;;;;65.13;33.70;;;;;;;;;;4987029;28;20470;-79
2022/01/27 00:53:01;;;;;;;81.40;38.63;;;;;;;;;;4980006;28;21004;-79
2022/01/27 00:55:31;;;;;;;68.77;35.93;;;;;;;;;;4992493;28;20458;-79
2022/01/27 00:58:07;;;;;;;66.13;34.30;;;;;;;;;;4985509;28;20485;-79
2022/01/27 01:00:37;;;;;;;80.03;39.57;;;;;;;;;;4990209;28;20477;-79
2022/01/27 01:03:09;;;;;;;78.40;39.73;;;;;;;;;;4983996;28;20479;-78
2022/01/27 01:05:56;;;;;;;85.50;38.77;;;;;;;;;;4986401;28;20470;-79
2022/01/27 01:14:25;;;;;;;71.30;36.40;;;;;;;;;;4975129;28;21011;-79
2022/01/27 01:16:59;;;;;;;66.73;34.87;;;;;;;;;;4987803;28;20455;-79
2022/01/27 01:19:39;;;;;;;63.33;31.80;;;;;;;;;;4985360;28;20474;-79
2022/01/27 01:29:24;;;;;;;66.20;33.50;;;;;;;;;;4983773;28;20515;-78
2022/01/27 01:30:45;;;;;;;66.83;34.03;;;;;;;;;;4985486;28;20605;-79
2022/01/27 01:33:19;;;;;;;61.97;33.40;;;;;;;;;;4988051;28;21570;-79
2022/01/27 01:35:48;;;;;;;62.23;34.03;;;;;;;;;;4981797;28;21027;-79
2022/01/27 01:38:17;;;;;;;71.40;34.97;;;;;;;;;;4982585;28;20513;-79
2022/01/27 01:40:43;;;;;;;77.57;34.53;;;;;;;;;;4984829;28;20541;-79
2022/01/27 01:43:10;;;;;;;72.00;37.13;;;;;;;;;;4994117;28;20471;-80
2022/01/27 01:45:36;;;;;;;64.57;33.43;;;;;;;;;;4995220;28;20461;-78
2022/01/27 01:48:02;;;;;;;76.47;36.77;;;;;;;;;;4987768;28;20511;-79
2022/01/27 01:50:29;;;;;;;66.60;32.60;;;;;;;;;;4994112;28;20520;-79
2022/01/27 01:52:56;;;;;;;62.43;34.90;;;;;;;;;;4992977;28;20474;-79
2022/01/27 01:55:23;;;;;;;73.73;35.60;;;;;;;;;;4990060;28;20853;-79
2022/01/27 01:57:50;;;;;;;66.57;32.53;;;;;;;;;;4986146;28;20482;-79
2022/01/27 02:00:17;;;;;;;76.17;37.10;;;;;;;;;;4991474;23;20503;-83
2022/01/27 02:02:43;;;;;;;74.07;34.63;;;;;;;;;;4968225;28;20476;-84
2022/01/27 02:05:10;;;;;;;68.00;35.17;;;;;;;;;;4964097;28;20502;-84
2022/01/27 02:07:52;;;;;;;71.70;35.33;;;;;;;;;;4966684;28;20499;-84
2022/01/27 02:10:33;;;;;;;64.00;36.47;;;;;;;;;;4969841;28;20510;-83
2022/01/27 02:18:28;;;;;;;59.80;31.33;;;;;;;;;;4970095;28;20478;-84
2022/01/27 02:20:55;;;;;;;68.83;35.03;;;;;;;;;;4973511;28;20443;-83
2022/01/27 02:23:22;;;;;;;65.87;36.47;;;;;;;;;;4974248;28;20472;-84
2022/01/27 02:25:49;;;;;;;67.07;33.43;;;;;;;;;;4975621;28;20502;-84
2022/01/27 02:28:16;;;;;;;67.47;33.87;;;;;;;;;;4971122;28;20569;-83
2022/01/27 02:30:42;;;;;;;69.47;35.27;;;;;;;;;;4972130;28;20472;-83
2022/01/27 02:33:08;;;;;;;69.20;33.83;;;;;;;;;;4973556;28;21039;-84
2022/01/27 02:35:35;;;;;;;71.10;35.20;;;;;;;;;;4971246;28;20463;-84
2022/01/27 02:38:05;;;;;;;76.57;39.17;;;;;;;;;;4972496;28;21772;-84
2022/01/27 02:40:35;;;;;;;68.57;38.27;;;;;;;;;;4974439;28;20543;-85
2022/01/27 02:43:02;;;;;;;71.40;37.07;;;;;;;;;;4973571;28;22603;-84
2022/01/27 02:45:32;;;;;;;74.63;36.10;;;;;;;;;;4974719;28;20542;-84
2022/01/27 02:47:58;;;;;;;64.37;34.97;;;;;;;;;;4973622;28;20967;-82
2022/01/27 02:50:25;;;;;;;73.37;34.60;;;;;;;;;;4974070;28;20486;-84
2022/01/27 02:52:51;;;;;;;69.77;36.40;;;;;;;;;;4973413;28;20479;-84
2022/01/27 02:55:18;;;;;;;64.43;34.53;;;;;;;;;;4974757;28;20459;-82
2022/01/27 02:57:45;;;;;;;62.67;35.70;;;;;;;;;;4972527;28;21083;-83
2022/01/27 03:00:11;;;;;;;68.23;34.77;;;;;;;;;;4975177;28;20838;-85
2022/01/27 03:02:38;;;;;;;67.20;36.07;;;;;;;;;;4974062;28;20475;-83
2022/01/27 03:05:04;;;;;;;62.20;33.10;;;;;;;;;;4973126;28;20451;-83
2022/01/27 03:07:30;;;;;;;74.43;37.20;;;;;;;;;;4973869;28;20491;-84
2022/01/27 03:09:57;;;;;;;61.90;34.00;;;;;;;;;;4973754;28;20490;-84
2022/01/27 03:12:27;;;;;;;60.87;34.20;;;;;;;;;;4973959;28;20479;-84
2022/01/27 03:14:53;;;;;;;57.80;32.07;;;;;;;;;;4971993;28;20468;-84
2022/01/27 03:17:19;;;;;;;61.80;32.90;;;;;;;;;;4979342;28;20506;-83
2022/01/27 03:19:45;;;;;;;65.37;33.23;;;;;;;;;;4972182;28;20475;-84
2022/01/27 03:22:12;;;;;;;60.90;33.27;;;;;;;;;;4973532;28;20487;-84
2022/01/27 03:24:38;;;;;;;64.37;34.47;;;;;;;;;;4973141;28;20452;-84
2022/01/27 03:27:12;;;;;;;57.57;33.90;;;;;;;;;;4973655;28;20467;-84
2022/01/27 03:29:39;;;;;;;67.53;34.93;;;;;;;;;;4971810;28;20482;-82
2022/01/27 03:32:06;;;;;;;68.33;33.70;;;;;;;;;;4973501;28;20820;-85
2022/01/27 03:34:32;;;;;;;61.80;32.50;;;;;;;;;;4971799;28;20464;-84
2022/01/27 03:36:59;;;;;;;64.57;30.27;;;;;;;;;;4973923;28;20460;-84
2022/01/27 03:39:26;;;;;;;59.67;31.60;;;;;;;;;;4973088;28;20488;-84
2022/01/27 03:41:54;;;;;;;61.90;32.63;;;;;;;;;;4969610;28;20499;-84
2022/01/27 03:44:23;;;;;;;62.37;31.30;;;;;;;;;;4968631;28;20517;-84
2022/01/27 03:46:52;;;;;;;58.10;31.87;;;;;;;;;;4969854;28;20884;-84
2022/01/27 03:49:19;;;;;;;65.20;34.13;;;;;;;;;;4969687;28;20482;-84
2022/01/27 03:51:45;;;;;;;58.97;33.13;;;;;;;;;;4971817;28;20460;-84
2022/01/27 03:54:12;;;;;;;54.90;30.57;;;;;;;;;;4972883;28;20505;-83
2022/01/27 03:56:38;;;;;;;57.73;29.67;;;;;;;;;;4973170;28;20847;-82
2022/01/27 03:59:05;;;;;;;52.67;30.33;;;;;;;;;;4971234;28;20538;-82
2022/01/27 04:01:31;;;;;;;59.27;31.23;;;;;;;;;;4972452;28;20491;-83
2022/01/27 04:04:00;;;;;;;58.47;31.20;;;;;;;;;;4972676;28;20474;-83
2022/01/27 04:06:33;;;;;;;58.57;31.70;;;;;;;;;;4972564;28;21023;-84
2022/01/27 04:09:00;;;;;;;57.17;31.63;;;;;;;;;;4971029;28;20479;-83
2022/01/27 04:11:27;;;;;;;58.17;31.07;;;;;;;;;;4973435;28;20447;-84
2022/01/27 04:13:53;;;;;;;52.73;29.80;;;;;;;;;;4972715;28;20468;-84
2022/01/27 04:16:19;;;;;;;60.63;32.40;;;;;;;;;;4972712;28;20950;-84
2022/01/27 04:18:46;;;;;;;62.23;33.13;;;;;;;;;;4969340;28;20546;-84
2022/01/27 04:21:13;;;;;;;66.63;33.27;;;;;;;;;;4972258;28;20509;-83
2022/01/27 04:23:39;;;;;;;71.80;35.07;;;;;;;;;;4971429;28;20487;-83
2022/01/27 04:26:07;;;;;;;63.80;35.43;;;;;;;;;;4971085;28;20487;-84
2022/01/27 04:28:35;;;;;;;60.07;34.17;;;;;;;;;;4970727;28;20859;-84
2022/01/27 04:31:05;;;;;;;68.00;34.37;;;;;;;;;;4971469;28;20459;-83
2022/01/27 04:33:33;;;;;;;66.73;34.30;;;;;;;;;;4970823;28;20816;-83
2022/01/27 04:36:04;;;;;;;61.03;34.87;;;;;;;;;;4972052;28;20494;-84
2022/01/27 04:38:36;;;;;;;68.60;36.37;;;;;;;;;;4971761;28;20486;-83
2022/01/27 04:41:10;;;;;;;68.10;35.93;;;;;;;;;;4970510;28;20451;-84
2022/01/27 04:43:42;;;;;;;67.40;35.90;;;;;;;;;;4970623;28;20495;-84
2022/01/27 04:46:20;;;;;;;70.83;34.90;;;;;;;;;;4971266;28;20464;-83
2022/01/27 04:48:51;;;;;;;73.57;35.00;;;;;;;;;;4969606;28;20483;-83
2022/01/27 04:51:19;;;;;;;64.60;32.60;;;;;;;;;;4972186;28;20550;-83
2022/01/27 04:53:52;;;;;;;71.40;35.63;;;;;;;;;;4969950;28;20483;-84
2022/01/27 04:56:20;;;;;;;63.70;35.17;;;;;;;;;;4972665;28;20462;-84
2022/01/27 04:58:50;;;;;;;64.67;34.13;;;;;;;;;;4969417;28;20518;-85
2022/01/27 05:01:18;;;;;;;63.10;33.67;;;;;;;;;;4969576;28;20455;-84
2022/01/27 05:03:48;;;;;;;66.30;35.40;;;;;;;;;;4971707;28;20903;-83
2022/01/27 05:06:15;;;;;;;61.57;33.10;;;;;;;;;;4969125;28;20468;-82
2022/01/27 05:08:41;;;;;;;72.53;34.77;;;;;;;;;;4970300;28;21023;-83
2022/01/27 05:11:14;;;;;;;72.63;37.33;;;;;;;;;;4961237;28;20547;-83
2022/01/27 05:13:48;;;;;;;60.60;33.77;;;;;;;;;;4965992;28;20500;-83
2022/01/27 05:16:14;;;;;;;66.70;35.83;;;;;;;;;;4977817;28;20828;-84
2022/01/27 05:18:40;;;;;;;66.80;35.03;;;;;;;;;;4971324;28;20503;-85
2022/01/27 05:21:06;;;;;;;68.63;35.07;;;;;;;;;;4972315;28;20470;-85
2022/01/27 05:23:33;;;;;;;70.60;39.63;;;;;;;;;;4966809;28;20498;-83
2022/01/27 05:25:59;;;;;;;62.00;34.93;;;;;;;;;;4968409;28;20512;-84
2022/01/27 05:28:27;;;;;;;66.57;36.33;;;;;;;;;;4971262;28;20480;-85
2022/01/27 05:30:53;;;;;;;70.23;35.57;;;;;;;;;;4970816;28;20813;-84
2022/01/27 05:33:19;;;;;;;62.37;34.50;;;;;;;;;;4968255;28;20483;-84
2022/01/27 05:35:46;;;;;;;72.80;35.57;;;;;;;;;;4964216;28;20475;-82
2022/01/27 05:38:14;;;;;;;71.10;37.13;;;;;;;;;;4967168;28;20914;-83
2022/01/27 05:40:41;;;;;;;77.00;38.50;;;;;;;;;;4965902;28;20487;-83
2022/01/27 05:43:07;;;;;;;62.30;34.80;;;;;;;;;;4969042;28;21009;-84
2022/01/27 05:45:35;;;;;;;74.00;37.50;;;;;;;;;;4970469;28;20483;-84
2022/01/27 05:48:01;;;;;;;61.67;35.40;;;;;;;;;;4970733;28;20906;-83
2022/01/27 05:50:27;;;;;;;79.13;35.77;;;;;;;;;;4974118;28;21034;-84
2022/01/27 05:52:53;;;;;;;73.53;34.17;;;;;;;;;;4969466;28;21078;-84
2022/01/27 05:55:20;;;;;;;71.87;38.17;;;;;;;;;;4966953;28;20468;-85
2022/01/27 05:57:46;;;;;;;85.60;40.57;;;;;;;;;;4966713;28;20487;-84
2022/01/27 06:00:13;;;;;;;80.67;38.10;;;;;;;;;;4964600;28;21009;-83
2022/01/27 06:02:40;;;;;;;74.27;35.40;;;;;;;;;;4967583;28;21001;-84
2022/01/27 06:05:07;;;;;;;74.93;37.27;;;;;;;;;;4972560;28;21031;-85
2022/01/27 06:07:33;;;;;;;81.60;37.63;;;;;;;;;;4976584;28;20467;-84
2022/01/27 06:09:59;;;;;;;76.63;37.50;;;;;;;;;;4971049;28;20475;-84
2022/01/27 06:12:26;;;;;;;78.00;39.33;;;;;;;;;;4971891;28;20832;-83
2022/01/27 06:14:52;;;;;;;73.00;39.17;;;;;;;;;;4969551;28;20459;-85
2022/01/27 06:17:18;;;;;;;85.50;40.00;;;;;;;;;;4970727;28;20463;-82
2022/01/27 06:19:47;;;;;;;72.10;36.70;;;;;;;;;;4969195;28;20526;-83
2022/01/27 06:22:13;;;;;;;72.13;37.97;;;;;;;;;;4970898;28;20538;-84
2022/01/27 06:24:40;;;;;;;81.03;38.67;;;;;;;;;;4970450;28;20526;-85
2022/01/27 06:27:07;;;;;;;80.77;37.60;;;;;;;;;;4968135;28;20479;-83
2022/01/27 06:29:33;;;;;;;77.47;38.70;;;;;;;;;;4970529;28;20476;-84
2022/01/27 06:31:59;;;;;;;84.50;38.57;;;;;;;;;;4970083;28;20969;-83
2022/01/27 06:34:26;;;;;;;72.90;37.03;;;;;;;;;;4968318;28;20895;-85
2022/01/27 06:36:53;;;;;;;70.83;36.60;;;;;;;;;;4975115;28;20506;-85
2022/01/27 06:39:19;;;;;;;67.10;35.77;;;;;;;;;;4972374;28;20540;-84
2022/01/27 06:41:47;;;;;;;74.00;37.57;;;;;;;;;;4975173;28;20477;-84
2022/01/27 06:44:13;;;;;;;74.10;38.40;;;;;;;;;;4973451;28;20475;-85
2022/01/27 06:46:40;;;;;;;77.83;36.20;;;;;;;;;;4974943;28;20513;-84
2022/01/27 06:49:06;;;;;;;72.73;34.80;;;;;;;;;;4974028;28;20483;-84
2022/01/27 06:51:33;;;;;;;71.03;37.17;;;;;;;;;;4974130;28;20463;-84
2022/01/27 06:54:00;;;;;;;70.03;36.67;;;;;;;;;;4973527;28;20522;-84
2022/01/27 06:56:27;;;;;;;70.43;37.70;;;;;;;;;;4972742;28;20490;-84
2022/01/27 06:58:53;;;;;;;64.33;32.80;;;;;;;;;;4971362;28;20483;-84
2022/01/27 07:01:20;;;;;;;59.63;33.27;;;;;;;;;;4973424;28;20462;-83
2022/01/27 07:03:46;;;;;;;61.43;32.97;;;;;;;;;;4973876;28;21066;-85
2022/01/27 07:06:13;;;;;;;61.77;32.60;;;;;;;;;;4973857;28;20459;-83
2022/01/27 07:08:39;;;;;;;66.47;35.30;;;;;;;;;;4966514;28;20515;-85
2022/01/27 07:11:07;;;;;;;66.60;34.20;;;;;;;;;;4970066;28;20521;-85
2022/01/27 07:13:33;;;;;;;64.23;31.93;;;;;;;;;;4973913;28;20471;-82
2022/01/27 07:16:00;;;;;;;68.40;32.57;;;;;;;;;;4969808;28;20474;-83
2022/01/27 07:18:27;;;;;;;63.77;33.77;;;;;;;;;;4973947;28;20526;-84
2022/01/27 07:20:53;;;;;;;61.90;31.67;;;;;;;;;;4970630;28;20547;-85
2022/01/27 07:23:20;;;;;;;58.03;30.30;;;;;;;;;;4971758;28;20542;-84
2022/01/27 07:25:46;;;;;;;58.33;29.03;;;;;;;;;;4974330;28;20462;-85
2022/01/27 07:28:13;;;;;;;51.87;28.70;;;;;;;;;;4972777;28;20487;-84
2022/01/27 07:30:40;;;;;;;52.43;28.37;;;;;;;;;;4971539;28;20471;-83
2022/01/27 07:33:06;;;;;;;57.50;28.50;;;;;;;;;;4973484;28;20530;-85
2022/01/27 07:35:32;;;;;;;54.53;27.77;;;;;;;;;;4974409;28;20517;-82
2022/01/27 07:37:59;;;;;;;50.47;27.73;;;;;;;;;;4972432;28;20565;-82
2022/01/27 07:40:25;;;;;;;47.13;26.17;;;;;;;;;;4974154;28;20471;-84
2022/01/27 07:42:51;;;;;;;45.07;26.20;;;;;;;;;;4974036;28;20475;-85
2022/01/27 07:45:19;;;;;;;44.30;25.30;;;;;;;;;;4967204;28;20468;-85
2022/01/27 07:47:45;;;;;;;41.60;23.93;;;;;;;;;;4974372;28;20475;-84
2022/01/27 07:50:11;;;;;;;48.67;25.90;;;;;;;;;;4973082;28;20541;-84
2022/01/27 07:52:38;;;;;;;40.27;24.40;;;;;;;;;;4973245;28;20460;-84
2022/01/27 07:55:04;;;;;;;47.00;26.73;;;;;;;;;;4974083;28;20455;-83
2022/01/27 07:57:30;;;;;;;46.73;24.90;;;;;;;;;;4973830;28;20554;-84
2022/01/27 07:59:57;;;;;;;41.30;24.80;;;;;;;;;;5015151;23;20489;-80
2022/01/27 08:02:24;;;;;;;41.77;24.23;;;;;;;;;;4971875;28;20459;-80
2022/01/27 08:04:50;;;;;;;40.07;23.63;;;;;;;;;;4976978;28;20483;-80
2022/01/27 08:07:17;;;;;;;39.47;20.63;;;;;;;;;;4974779;28;20482;-80
2022/01/27 08:09:43;;;;;;;34.33;20.83;;;;;;;;;;4983923;28;20483;-81
2022/01/27 08:12:09;;;;;;;41.77;21.20;;;;;;;;;;4977215;28;20453;-81
2022/01/27 08:14:36;;;;;;;35.50;19.60;;;;;;;;;;4980605;28;20443;-80
2022/01/27 08:17:02;;;;;;;38.23;21.90;;;;;;;;;;4978304;28;20462;-81
2022/01/27 08:19:29;;;;;;;36.70;21.47;;;;;;;;;;4976006;28;20483;-80
2022/01/27 08:21:56;;;;;;;34.63;21.13;;;;;;;;;;4978337;28;20455;-79
2022/01/27 08:24:22;;;;;;;35.30;19.77;;;;;;;;;;4977113;28;20557;-80
2022/01/27 08:26:50;;;;;;;34.13;20.67;;;;;;;;;;4978992;28;20459;-81
2022/01/27 08:29:20;;;;;;;37.13;22.13;;;;;;;;;;4983264;28;20538;-80
2022/01/27 08:31:58;;;;;;;32.53;19.70;;;;;;;;;;4977230;28;20461;-80
2022/01/27 08:34:31;;;;;;;33.90;19.93;;;;;;;;;;4975645;28;20467;-80
2022/01/27 08:36:59;;;;;;;32.90;21.27;;;;;;;;;;4978129;28;20463;-80
2022/01/27 08:39:25;;;;;;;33.50;19.53;;;;;;;;;;4977585;28;20472;-80
2022/01/27 08:41:52;;;;;;;33.63;20.10;;;;;;;;;;4977398;28;20447;-80
2022/01/27 08:44:18;;;;;;;34.73;21.90;;;;;;;;;;4977328;28;20471;-80
2022/01/27 08:46:45;;;;;;;28.93;17.37;;;;;;;;;;4975197;28;20543;-80
2022/01/27 08:49:11;;;;;;;39.10;20.77;;;;;;;;;;4980822;28;20559;-78
2022/01/27 08:51:38;;;;;;;34.77;20.70;;;;;;;;;;4977115;28;20454;-80
2022/01/27 08:54:05;;;;;;;29.67;19.20;;;;;;;;;;4975667;28;20506;-80
2022/01/27 08:56:32;;;;;;;35.43;21.40;;;;;;;;;;4975951;28;20440;-80
2022/01/27 08:58:58;;;;;;;32.53;20.20;;;;;;;;;;4975397;28;20538;-80
2022/01/27 09:01:26;;;;;;;34.73;20.33;;;;;;;;;;4974067;28;20479;-80
2022/01/27 09:03:53;;;;;;;32.77;17.93;;;;;;;;;;4975853;28;20909;-80
2022/01/27 09:06:19;;;;;;;37.07;19.70;;;;;;;;;;4976407;28;20452;-81
2022/01/27 09:08:46;;;;;;;32.60;18.47;;;;;;;;;;4975691;28;20479;-79
2022/01/27 09:11:13;;;;;;;29.87;18.07;;;;;;;;;;4978252;28;20826;-80
2022/01/27 09:13:41;;;;;;;29.17;17.80;;;;;;;;;;4977408;28;20578;-80
2022/01/27 09:16:08;;;;;;;24.90;15.70;;;;;;;;;;4976108;28;20518;-80
2022/01/27 09:18:34;;;;;;;27.70;17.20;;;;;;;;;;4975281;28;20491;-80
2022/01/27 09:21:04;;;;;;;29.53;17.53;;;;;;;;;;4976773;28;20491;-81
2022/01/27 09:23:31;;;;;;;31.20;17.07;;;;;;;;;;4976304;28;20475;-80
2022/01/27 09:26:03;;;;;;;27.77;17.13;;;;;;;;;;4980711;28;20449;-81
2022/01/27 09:28:31;;;;;;;30.77;16.20;;;;;;;;;;4977700;28;20472;-81
2022/01/27 09:30:57;;;;;;;31.30;15.50;;;;;;;;;;4976851;28;20479;-81
2022/01/27 09:33:23;;;;;;;28.13;17.20;;;;;;;;;;4977265;28;21005;-79
2022/01/27 09:35:50;;;;;;;25.03;16.13;;;;;;;;;;4977759;28;20474;-80
2022/01/27 09:38:17;;;;;;;24.47;14.20;;;;;;;;;;4975943;28;20511;-80
2022/01/27 09:40:46;;;;;;;20.33;14.17;;;;;;;;;;4977783;28;20838;-79
2022/01/27 09:43:13;;;;;;;21.70;14.83;;;;;;;;;;4978061;28;20513;-79
2022/01/27 09:45:41;;;;;;;21.40;12.03;;;;;;;;;;4978413;28;20459;-81
2022/01/27 09:48:13;;;;;;;20.97;13.67;;;;;;;;;;4978417;28;20582;-81
2022/01/27 09:50:49;;;;;;;22.97;15.10;;;;;;;;;;4977311;28;20485;-80
2022/01/27 09:53:15;;;;;;;21.30;14.50;;;;;;;;;;4966967;28;20566;-80
2022/01/27 09:55:42;;;;;;;22.63;14.20;;;;;;;;;;4980899;28;20471;-79
2022/01/27 09:58:09;;;;;;;23.70;15.03;;;;;;;;;;4974030;28;20474;-79
2022/01/27 10:00:36;;;;;;;25.60;15.73;;;;;;;;;;4983588;28;20541;-80
2022/01/27 10:03:05;;;;;;;28.23;16.00;;;;;;;;;;4978941;28;20475;-79
2022/01/27 10:05:32;;;;;;;27.50;16.77;;;;;;;;;;4984281;28;20483;-80
2022/01/27 10:08:02;;;;;;;22.47;16.70;;;;;;;;;;4980219;28;20517;-78
2022/01/27 10:10:28;;;;;;;37.07;18.90;;;;;;;;;;4977702;28;20472;-80
2022/01/27 10:12:57;;;;;;;27.37;17.10;;;;;;;;;;4980099;28;20470;-80
2022/01/27 10:15:24;;;;;;;30.80;18.70;;;;;;;;;;4979965;28;20980;-81
2022/01/27 10:18:08;;;;;;;27.70;16.80;;;;;;;;;;4980132;28;20471;-81
2022/01/27 10:20:35;;;;;;;27.63;17.53;;;;;;;;;;4979048;28;20474;-80
2022/01/27 10:23:08;;;;;;;29.83;17.97;;;;;;;;;;4979593;28;20475;-81
2022/01/27 10:25:35;;;;;;;29.27;18.20;;;;;;;;;;4983574;28;20493;-81
2022/01/27 10:28:10;;;;;;;25.57;17.27;;;;;;;;;;4978072;28;20467;-79
2022/01/27 10:30:38;;;;;;;26.37;17.00;;;;;;;;;;4976579;28;20474;-80
2022/01/27 10:33:05;;;;;;;33.63;19.90;;;;;;;;;;4979060;28;20489;-81
2022/01/27 10:35:35;;;;;;;34.63;17.70;;;;;;;;;;4979030;28;20448;-80
2022/01/27 10:38:03;;;;;;;28.97;19.03;;;;;;;;;;4978123;28;21006;-80
2022/01/27 10:40:30;;;;;;;36.23;17.80;;;;;;;;;;4976943;28;20514;-81
2022/01/27 10:43:10;;;;;;;44.07;20.17;;;;;;;;;;4975852;28;20534;-80
2022/01/27 10:45:38;;;;;;;32.27;18.00;;;;;;;;;;4978227;28;20514;-81
2022/01/27 10:48:11;;;;;;;36.47;18.13;;;;;;;;;;4978460;28;20556;-80
2022/01/27 10:50:51;;;;;;;36.20;18.30;;;;;;;;;;4977490;28;20475;-80
2022/01/27 10:53:19;;;;;;;28.67;17.37;;;;;;;;;;4978070;28;20997;-81
2022/01/27 10:55:45;;;;;;;32.17;16.60;;;;;;;;;;4978589;28;20470;-80
2022/01/27 10:58:24;;;;;;;30.20;18.30;;;;;;;;;;4978166;28;20477;-81
2022/01/27 11:00:56;;;;;;;29.67;16.43;;;;;;;;;;4975226;28;20502;-79
2022/01/27 11:03:22;;;;;;;33.13;15.83;;;;;;;;;;4978344;28;20720;-82
2022/01/27 11:05:51;;;;;;;26.10;15.90;;;;;;;;;;4979329;28;20541;-81
2022/01/27 11:08:19;;;;;;;25.63;16.23;;;;;;;;;;4979147;28;20474;-81
2022/01/27 11:10:48;;;;;;;32.47;16.17;;;;;;;;;;4978427;28;20988;-81
2022/01/27 11:13:15;;;;;;;29.70;16.40;;;;;;;;;;4974188;28;21012;-80
2022/01/27 11:15:42;;;;;;;31.60;15.93;;;;;;;;;;4978710;28;20531;-80
2022/01/27 11:18:09;;;;;;;27.53;15.57;;;;;;;;;;4979678;28;20534;-81
2022/01/27 11:20:49;;;;;;;29.83;15.77;;;;;;;;;;4979214;28;20514;-80
2022/01/27 11:23:46;;;;;;;28.60;15.30;;;;;;;;;;4969708;28;20487;-80
2022/01/27 11:26:13;;;;;;;30.43;15.60;;;;;;;;;;4978695;28;20809;-80
2022/01/27 11:28:43;;;;;;;26.20;13.60;;;;;;;;;;4982672;28;21025;-80
2022/01/27 11:31:15;;;;;;;30.63;14.93;;;;;;;;;;4977314;28;20468;-80
2022/01/27 11:33:44;;;;;;;32.93;13.07;;;;;;;;;;4977911;28;21039;-80
2022/01/27 11:36:11;;;;;;;25.50;13.73;;;;;;;;;;4978744;28;20830;-80
2022/01/27 11:38:40;;;;;;;32.97;12.83;;;;;;;;;;4977227;28;20483;-80
2022/01/27 11:41:06;;;;;;;31.70;11.50;;;;;;;;;;4978441;28;20486;-80
2022/01/27 11:43:34;;;;;;;32.43;12.77;;;;;;;;;;4976594;28;20490;-82
2022/01/27 11:46:12;;;;;;;26.70;11.10;;;;;;;;;;4978333;28;20479;-82
2022/01/27 11:48:39;;;;;;;35.63;12.00;;;;;;;;;;4976535;28;20552;-82
2022/01/27 11:51:12;;;;;;;30.27;10.33;;;;;;;;;;4978146;28;20826;-82
2022/01/27 11:53:41;;;;;;;25.70;12.07;;;;;;;;;;4979623;28;20490;-83
2022/01/27 11:56:08;;;;;;;24.97;10.77;;;;;;;;;;4979685;28;20468;-82
2022/01/27 11:58:47;;;;;;;31.10;9.10;;;;;;;;;;4979610;28;20475;-82
2022/01/27 12:01:23;;;;;;;33.70;10.30;;;;;;;;;;4982998;28;20500;-83
2022/01/27 12:04:08;;;;;;;25.00;10.00;;;;;;;;;;4979740;28;20478;-82
2022/01/27 12:06:36;;;;;;;33.43;9.40;;;;;;;;;;4979685;28;20460;-81
2022/01/27 12:09:19;;;;;;;29.07;7.50;;;;;;;;;;4977192;28;20506;-82
2022/01/27 12:11:49;;;;;;;24.80;8.50;;;;;;;;;;4970802;28;20455;-81
2022/01/27 12:14:18;;;;;;;26.20;8.77;;;;;;;;;;4981447;28;20481;-81
2022/01/27 12:16:56;;;;;;;20.33;8.30;;;;;;;;;;4978547;28;20455;-81
2022/01/27 12:19:22;;;;;;;30.87;11.87;;;;;;;;;;4977418;28;21034;-81
2022/01/27 12:22:04;;;;;;;27.10;8.13;;;;;;;;;;4975034;28;20458;-82
2022/01/27 12:24:31;;;;;;;17.20;7.80;;;;;;;;;;4974821;28;20514;-82
2022/01/27 12:27:00;;;;;;;29.23;8.10;;;;;;;;;;4979228;28;20447;-82
2022/01/27 12:29:27;;;;;;;21.97;6.80;;;;;;;;;;4972566;28;20483;-82
2022/01/27 12:31:55;;;;;;;22.03;6.73;;;;;;;;;;4977102;28;20463;-82
2022/01/27 12:34:21;;;;;;;20.10;6.53;;;;;;;;;;4977749;28;20529;-83
2022/01/27 12:36:55;;;;;;;28.53;7.33;;;;;;;;;;4978199;28;20452;-81
2022/01/27 12:39:22;;;;;;;26.47;6.83;;;;;;;;;;4977538;28;20471;-83
2022/01/27 12:41:48;;;;;;;23.83;7.10;;;;;;;;;;4976794;28;20451;-81
2022/01/27 12:44:16;;;;;;;20.43;7.73;;;;;;;;;;4975592;28;20474;-79
2022/01/27 12:46:57;;;;;;;20.30;6.87;;;;;;;;;;4977473;28;20447;-81
2022/01/27 12:49:36;;;;;;;25.63;6.20;;;;;;;;;;4975023;28;21075;-82
2022/01/27 12:52:06;;;;;;;26.73;6.67;;;;;;;;;;4977434;28;20464;-81
2022/01/27 12:54:32;;;;;;;21.10;6.00;;;;;;;;;;4979303;28;20506;-80
2022/01/27 12:56:59;;;;;;;19.07;6.70;;;;;;;;;;4980673;28;20451;-81
2022/01/27 12:59:29;;;;;;;27.20;6.60;;;;;;;;;;4976038;28;20502;-82
2022/01/27 13:01:56;;;;;;;16.07;5.80;;;;;;;;;;4977499;28;20454;-80
2022/01/27 13:04:24;;;;;;;36.93;6.47;;;;;;;;;;4977465;28;20501;-81
2022/01/27 13:06:54;;;;;;;24.67;5.07;;;;;;;;;;4976680;28;20461;-82
2022/01/27 13:09:20;;;;;;;26.50;5.63;;;;;;;;;;4977738;28;20490;-81
2022/01/27 13:11:48;;;;;;;11.60;4.53;;;;;;;;;;4978741;28;20453;-82
2022/01/27 13:14:14;;;;;;;21.07;6.13;;;;;;;;;;4974071;28;20479;-82
2022/01/27 13:16:44;;;;;;;18.60;4.53;;;;;;;;;;4977422;28;20467;-83
2022/01/27 13:19:21;;;;;;;21.97;5.93;;;;;;;;;;4977347;28;20475;-82
2022/01/27 13:21:52;;;;;;;19.13;4.40;;;;;;;;;;4975912;28;20546;-81
2022/01/27 13:24:19;;;;;;;12.47;4.83;;;;;;;;;;4976535;28;20913;-80
2022/01/27 13:26:46;;;;;;;21.67;4.87;;;;;;;;;;4977066;28;21004;-82
2022/01/27 13:29:13;;;;;;;20.80;5.60;;;;;;;;;;4981393;28;20483;-80
2022/01/27 13:31:39;;;;;;;17.87;5.07;;;;;;;;;;4983155;28;20455;-82
2022/01/27 13:34:07;;;;;;;16.83;5.93;;;;;;;;;;4981934;28;20795;-81
2022/01/27 13:36:35;;;;;;;19.13;4.30;;;;;;;;;;4974198;28;20518;-82
2022/01/27 13:39:11;;;;;;;20.20;5.40;;;;;;;;;;4971693;28;20482;-81
2022/01/27 13:41:39;;;;;;;17.10;3.80;;;;;;;;;;4973979;28;20662;-81
2022/01/27 13:44:06;;;;;;;14.07;4.37;;;;;;;;;;4978606;28;20495;-82
2022/01/27 13:46:33;;;;;;;16.83;4.30;;;;;;;;;;4975677;28;20491;-82
2022/01/27 13:49:04;;;;;;;20.53;5.50;;;;;;;;;;4977509;28;20558;-82
2022/01/27 13:51:32;;;;;;;13.33;3.90;;;;;;;;;;4977611;28;20479;-83
2022/01/27 13:53:59;;;;;;;13.20;4.30;;;;;;;;;;4974818;28;20486;-82
2022/01/27 13:56:25;;;;;;;16.97;4.50;;;;;;;;;;4970744;28;20526;-82
2022/01/27 13:59:08;;;;;;;15.93;4.23;;;;;;;;;;4973628;28;20484;-82
2022/01/27 14:01:34;;;;;;;11.80;4.10;;;;;;;;;;4994049;23;20502;-85
2022/01/27 14:04:01;;;;;;;18.93;4.20;;;;;;;;;;4983809;28;20533;-86
2022/01/27 14:06:27;;;;;;;26.87;4.30;;;;;;;;;;4989330;28;20533;-85
2022/01/27 14:08:57;;;;;;;17.70;4.50;;;;;;;;;;4990401;28;20496;-84
2022/01/27 14:11:33;;;;;;;16.90;3.97;;;;;;;;;;4990614;28;20482;-83
2022/01/27 14:14:01;;;;;;;19.10;4.70;;;;;;;;;;4974150;28;20527;-85
2022/01/27 14:16:27;;;;;;;16.23;4.20;;;;;;;;;;4966577;28;20466;-86
2022/01/27 14:18:54;;;;;;;22.50;5.13;;;;;;;;;;4956002;28;20846;-84
2022/01/27 14:21:22;;;;;;;15.70;3.83;;;;;;;;;;4974795;28;20488;-87
2022/01/27 14:24:06;;;;;;;13.67;4.03;;;;;;;;;;4961618;28;20479;-83
2022/01/27 14:26:39;;;;;;;16.47;4.37;;;;;;;;;;4959788;28;20579;-84
2022/01/27 14:29:07;;;;;;;23.13;4.30;;;;;;;;;;4972250;28;20498;-85
2022/01/27 14:31:34;;;;;;;15.50;4.03;;;;;;;;;;4976765;28;20475;-83
2022/01/27 14:34:00;;;;;;;16.17;3.63;;;;;;;;;;4963073;28;20527;-82
2022/01/27 14:36:27;;;;;;;15.30;4.27;;;;;;;;;;4965366;28;20448;-85
2022/01/27 14:38:53;;;;;;;16.40;4.37;;;;;;;;;;4958558;28;20484;-83
2022/01/27 14:41:20;;;;;;;11.03;3.60;;;;;;;;;;4969413;28;20524;-83
2022/01/27 14:43:48;;;;;;;13.20;5.07;;;;;;;;;;4955786;28;20480;-85